Time;durP1;ratioP1;P1;durP2;ratioP2;P2;SDS_P1;SDS_P2;PMS_P1;PMS_P2;Temp;Humidity;BMP_temperature;BMP_pressure;BME280_temperature;BME280_humidity;BME280_pressure;Samples;Min_cycle;Max_cycle;Signal;HPM_P1;HPM_P2
2023/01/20 00:02:41;;;;;;;195.70;91.00;;;;;;;-2.38;79.21;99755.23;129995;1259;115318;-61
2023/01/20 00:05:50;;;;;;;187.20;88.00;;;;;;;-2.39;79.44;99758.02;129660;1263;115228;-65
2023/01/20 00:08:54;;;;;;;179.50;83.00;;;;;;;-2.39;79.43;99757.51;129962;1257;114895;-66
2023/01/20 00:11:56;;;;;;;178.30;84.30;;;;;;;-2.41;79.24;99760.32;129847;1258;114743;-69
2023/01/20 00:14:59;;;;;;;174.90;83.90;;;;;;;-2.42;79.31;99758.05;130332;1257;114734;-65
2023/01/20 00:18:01;;;;;;;191.30;86.60;;;;;;;-2.43;79.18;99754.04;130177;1253;114756;-67
2023/01/20 00:21:09;;;;;;;190.60;91.20;;;;;;;-2.45;79.26;99759.11;130289;1254;115109;-66
2023/01/20 00:24:11;;;;;;;194.40;89.60;;;;;;;-2.46;79.17;99757.54;129950;1259;116478;-65
2023/01/20 00:27:15;;;;;;;195.80;90.90;;;;;;;-2.48;79.48;99756.85;129899;1258;115265;-65
2023/01/20 00:30:17;;;;;;;193.20;91.30;;;;;;;-2.49;79.47;99756.34;130338;1253;115167;-65
2023/01/20 00:33:19;;;;;;;213.60;99.30;;;;;;;-2.51;79.25;99756.88;130298;1277;114714;-64
2023/01/20 00:36:22;;;;;;;211.10;101.60;;;;;;;-2.54;78.93;99757.76;129843;1257;114795;-62
2023/01/20 00:39:24;;;;;;;213.70;100.00;;;;;;;-2.56;79.11;99763.02;130019;1258;114734;-62
2023/01/20 00:42:26;;;;;;;216.30;98.90;;;;;;;-2.58;78.86;99761.80;129918;1277;114815;-62
2023/01/20 00:45:29;;;;;;;210.50;97.40;;;;;;;-2.62;78.76;99767.05;129903;1258;116363;-65
2023/01/20 00:48:32;;;;;;;221.80;96.20;;;;;;;-2.66;78.90;99771.09;129751;1262;115161;-61
2023/01/20 00:51:34;;;;;;;209.20;96.50;;;;;;;-2.69;78.88;99779.15;129833;1256;114701;-61
2023/01/20 00:54:37;;;;;;;211.10;94.00;;;;;;;-2.75;78.66;99777.08;129945;1254;115107;-62
2023/01/20 00:57:39;;;;;;;212.50;96.50;;;;;;;-2.79;78.97;99772.19;129952;1254;114773;-61
2023/01/20 01:00:42;;;;;;;207.80;93.90;;;;;;;-2.85;78.71;99779.56;130047;1253;115749;-63
2023/01/20 01:03:45;;;;;;;206.30;94.20;;;;;;;-2.91;78.75;99779.94;129921;1253;114908;-61
2023/01/20 01:06:51;;;;;;;201.20;94.00;;;;;;;-2.94;78.85;99786.39;130009;1255;115327;-61
2023/01/20 01:09:54;;;;;;;219.70;95.80;;;;;;;-2.98;78.69;99789.56;129740;1254;114847;-62
2023/01/20 01:13:01;;;;;;;221.30;96.70;;;;;;;-3.03;78.93;99801.63;129896;1257;114728;-65
2023/01/20 01:16:09;;;;;;;233.60;102.80;;;;;;;-3.06;79.01;99806.52;129938;1254;128988;-66
2023/01/20 01:19:11;;;;;;;226.90;99.70;;;;;;;-3.11;78.78;99807.75;129877;1254;115199;-65
2023/01/20 01:22:13;;;;;;;233.00;102.70;;;;;;;-3.15;78.89;99804.98;130277;1257;115097;-61
2023/01/20 01:25:16;;;;;;;226.90;96.90;;;;;;;-3.19;78.97;99808.11;130265;1263;114703;-61
2023/01/20 01:28:19;;;;;;;211.90;98.00;;;;;;;-3.23;78.86;99803.58;129657;1260;114860;-61
2023/01/20 01:31:21;;;;;;;222.40;102.90;;;;;;;-3.25;79.05;99799.04;129904;1257;114807;-62
2023/01/20 01:34:24;;;;;;;216.50;98.90;;;;;;;-3.28;78.95;99796.94;129903;1260;114949;-63
2023/01/20 01:37:27;;;;;;;214.10;97.10;;;;;;;-3.31;78.87;99793.46;130037;1253;115655;-63
2023/01/20 01:40:30;;;;;;;249.80;111.20;;;;;;;-3.34;78.95;99792.25;129628;1262;114797;-63
2023/01/20 01:43:34;;;;;;;282.20;127.10;;;;;;;-3.36;79.20;99788.05;130198;1258;114850;-61
2023/01/20 01:46:38;;;;;;;266.10;122.90;;;;;;;-3.37;79.35;99791.38;129978;1259;114985;-64
2023/01/20 01:49:40;;;;;;;253.70;118.10;;;;;;;-3.38;79.35;99789.97;129888;1257;115437;-64
2023/01/20 01:52:45;;;;;;;267.60;124.00;;;;;;;-3.39;79.15;99792.25;129888;1272;114779;-63
2023/01/20 01:55:52;;;;;;;287.30;130.20;;;;;;;-3.40;79.40;99790.52;129973;1254;114828;-62
2023/01/20 01:58:57;;;;;;;281.30;125.60;;;;;;;-3.42;79.16;99797.50;130287;1254;114742;-66
2023/01/20 02:01:59;;;;;;;;;;;;;;;-3.43;79.27;99802.02;129926;1262;115163;-67
2023/01/20 02:05:02;;;;;;;274.60;127.30;;;;;;;-3.45;79.20;99806.04;130144;1258;115216;-62
2023/01/20 02:08:06;;;;;;;279.10;128.30;;;;;;;-3.46;79.40;99811.28;129893;1257;115325;-63
2023/01/20 02:11:08;;;;;;;279.40;131.80;;;;;;;-3.46;79.04;99816.33;130297;1267;114677;-62
2023/01/20 02:14:11;;;;;;;278.20;127.30;;;;;;;-3.46;79.58;99816.16;130120;1259;115060;-62
2023/01/20 02:17:44;;;;;;;269.30;128.50;;;;;;;-3.45;79.50;99812.67;130258;1257;114777;-63
2023/01/20 02:21:14;;;;;;;282.80;128.50;;;;;;;-3.43;79.62;99809.88;130050;1260;116391;-63
2023/01/20 02:24:38;;;;;;;278.10;127.30;;;;;;;-3.42;79.60;99813.73;129935;1253;114924;-62
2023/01/20 02:27:57;;;;;;;263.90;120.00;;;;;;;-3.40;79.65;99817.74;129593;1259;127894;-62
2023/01/20 02:31:27;;;;;;;272.30;129.00;;;;;;;-3.38;79.80;99821.05;129587;1274;115136;-62
2023/01/20 02:35:03;;;;;;;269.30;128.30;;;;;;;-3.37;79.74;99828.91;130251;1257;114843;-61
2023/01/20 02:38:33;;;;;;;283.10;126.00;;;;;;;-3.35;79.88;99830.66;129615;1264;114899;-61
2023/01/20 02:41:59;;;;;;;281.50;129.50;;;;;;;-3.31;79.93;99838.34;129966;1256;114970;-61
2023/01/20 02:45:05;;;;;;;277.50;132.00;;;;;;;-3.29;79.81;99842.00;129926;1277;128528;-62
2023/01/20 02:48:29;;;;;;;268.20;128.50;;;;;;;-3.26;80.07;99841.48;130001;1277;116126;-62
2023/01/20 02:51:37;;;;;;;280.30;130.70;;;;;;;-3.23;80.14;99843.41;130000;1257;114795;-70
2023/01/20 02:54:42;;;;;;;281.70;133.40;;;;;;;-3.20;80.33;99840.07;129719;1263;114731;-62
2023/01/20 02:57:53;;;;;;;288.50;134.70;;;;;;;-3.17;80.00;99843.40;130139;1260;114769;-62
2023/01/20 03:01:01;;;;;;;276.80;135.10;;;;;;;-3.16;80.08;99840.60;130273;1253;128843;-63
2023/01/20 03:04:04;;;;;;;292.70;132.50;;;;;;;-3.13;80.33;99844.09;129986;1257;114936;-62
2023/01/20 03:07:09;;;;;;;277.30;134.10;;;;;;;-3.11;79.93;99847.92;129950;1257;114853;-67
2023/01/20 03:10:14;;;;;;;280.50;131.00;;;;;;;-3.09;80.31;99851.23;130264;1277;115286;-63
2023/01/20 03:13:21;;;;;;;288.50;136.40;;;;;;;-3.07;80.21;99855.27;130362;1270;114708;-61
2023/01/20 03:16:25;;;;;;;281.60;132.00;;;;;;;-3.06;80.06;99861.18;130053;1257;127898;-62
2023/01/20 03:19:28;;;;;;;276.80;131.40;;;;;;;-3.03;79.96;99861.19;130032;1254;114795;-67
2023/01/20 03:22:31;;;;;;;282.20;135.30;;;;;;;-3.02;79.83;99857.69;130094;1253;115142;-64
2023/01/20 03:25:34;;;;;;;294.70;135.90;;;;;;;-3.02;80.20;99860.84;129949;1256;114748;-62
2023/01/20 03:28:37;;;;;;;302.60;135.10;;;;;;;-3.00;80.03;99864.16;129949;1269;114684;-69
2023/01/20 03:31:49;;;;;;;283.80;133.40;;;;;;;-3.00;80.25;99871.67;130315;1253;114794;-65
2023/01/20 03:34:53;;;;;;;282.90;133.90;;;;;;;-3.00;80.10;99873.77;129629;1264;116571;-66
2023/01/20 03:37:56;;;;;;;277.90;132.00;;;;;;;-3.00;80.01;99876.73;130085;1258;115228;-61
2023/01/20 03:41:25;;;;;;;275.80;131.00;;;;;;;-3.00;80.00;99877.61;129818;1254;114837;-61
2023/01/20 03:44:52;;;;;;;273.60;133.10;;;;;;;-3.00;80.02;99876.73;129885;1259;115303;-61
2023/01/20 03:48:02;;;;;;;276.70;129.90;;;;;;;-3.01;79.82;99887.05;129871;1255;128842;-68
2023/01/20 03:51:27;;;;;;;275.20;128.40;;;;;;;-3.03;79.77;99897.16;130173;1259;114713;-62
2023/01/20 03:54:40;;;;;;;282.50;129.50;;;;;;;-3.05;79.84;99903.98;130160;1254;114666;-68
2023/01/20 03:57:47;;;;;;;271.00;123.70;;;;;;;-3.07;79.86;99905.92;129937;1266;115061;-68
2023/01/20 04:00:51;;;;;;;272.60;124.80;;;;;;;-3.09;79.90;99906.96;129613;1278;114807;-65
2023/01/20 04:03:53;;;;;;;269.00;130.40;;;;;;;-3.12;79.73;99909.75;129998;1259;114811;-71
2023/01/20 04:06:57;;;;;;;270.60;125.60;;;;;;;-3.15;79.71;99915.00;129858;1262;114801;-69
2023/01/20 04:10:07;;;;;;;265.60;120.40;;;;;;;-3.18;79.76;99911.86;129983;1254;114729;-69
2023/01/20 04:13:09;;;;;;;266.40;123.80;;;;;;;-3.21;79.55;99909.41;130043;1254;114827;-71
2023/01/20 04:16:16;;;;;;;260.80;124.10;;;;;;;-3.23;79.65;99916.39;130207;1254;114791;-69
2023/01/20 04:19:18;;;;;;;255.30;124.10;;;;;;;-3.26;79.57;99921.64;129656;1255;127629;-69
2023/01/20 04:22:47;;;;;;;272.50;122.90;;;;;;;-3.29;79.57;99924.94;130227;1257;114755;-65
2023/01/20 04:25:49;;;;;;;267.10;127.60;;;;;;;-3.33;79.31;99925.83;130301;1254;115221;-72
2023/01/20 04:28:51;;;;;;;272.10;128.40;;;;;;;-3.37;79.62;99928.95;130214;1257;116324;-71
2023/01/20 04:32:00;;;;;;;266.50;124.10;;;;;;;-3.39;79.52;99934.73;129966;1265;114665;-69
2023/01/20 04:35:05;;;;;;;270.00;126.80;;;;;;;-3.42;79.46;99935.58;130368;1259;114965;-71
2023/01/20 04:38:08;;;;;;;269.00;125.70;;;;;;;-3.45;79.57;99937.31;130285;1257;128114;-70
2023/01/20 04:41:11;;;;;;;276.70;129.20;;;;;;;-3.47;79.48;99940.98;130191;1260;115180;-68
2023/01/20 04:44:13;;;;;;;269.50;128.20;;;;;;;-3.50;79.28;99945.86;130104;1260;115191;-71
2023/01/20 04:47:15;;;;;;;278.90;130.10;;;;;;;-3.55;79.32;99949.34;130282;1257;115230;-65
2023/01/20 04:50:18;;;;;;;287.50;132.90;;;;;;;-3.57;79.64;99951.80;130211;1257;114616;-68
2023/01/20 04:53:20;;;;;;;273.10;135.90;;;;;;;-3.61;79.23;99952.65;130211;1257;114766;-65
2023/01/20 04:56:23;;;;;;;279.30;129.30;;;;;;;-3.65;79.17;99948.81;130021;1253;114731;-64
2023/01/20 04:59:25;;;;;;;298.80;139.20;;;;;;;-3.68;79.36;99954.04;129941;1260;129352;-70
2023/01/20 05:02:27;;;;;;;320.00;142.60;;;;;;;-3.70;79.26;99962.74;130251;1270;115643;-63
2023/01/20 05:05:29;;;;;;;299.10;138.60;;;;;;;-3.71;79.74;99972.52;130275;1253;114804;-60
2023/01/20 05:08:32;;;;;;;323.00;145.40;;;;;;;-3.72;79.51;99989.61;129817;1262;115184;-61
2023/01/20 05:11:34;;;;;;;300.00;139.00;;;;;;;-3.71;79.42;99997.47;130028;1253;114935;-68
2023/01/20 05:14:37;;;;;;;306.10;141.30;;;;;;;-3.68;80.03;99999.58;130065;1253;114783;-65
2023/01/20 05:17:39;;;;;;;305.10;142.40;;;;;;;-3.64;79.85;99999.08;130001;1258;115048;-66
2023/01/20 05:20:44;;;;;;;293.90;138.90;;;;;;;-3.58;80.03;99998.02;130046;1270;114711;-67
2023/01/20 05:23:47;;;;;;;302.80;143.30;;;;;;;-3.52;80.44;99998.94;130015;1258;114728;-70
2023/01/20 05:26:49;;;;;;;319.10;143.60;;;;;;;-3.46;80.47;100005.41;130021;1257;115081;-68
2023/01/20 05:29:52;;;;;;;311.00;142.20;;;;;;;-3.40;80.29;100011.53;130012;1257;115081;-68
2023/01/20 05:32:55;;;;;;;294.90;140.20;;;;;;;-3.32;80.57;100014.17;130030;1258;114721;-70
2023/01/20 05:35:57;;;;;;;299.90;134.70;;;;;;;-3.24;80.85;100017.16;129727;1267;114690;-65
2023/01/20 05:39:00;;;;;;;285.10;135.00;;;;;;;-3.17;80.82;100013.16;130132;1277;114826;-69
2023/01/20 05:42:02;;;;;;;292.30;134.40;;;;;;;-3.10;80.88;100012.82;129945;1253;115414;-70
2023/01/20 05:45:06;;;;;;;282.10;135.00;;;;;;;-3.01;80.91;100018.24;129984;1258;114692;-69
2023/01/20 05:48:08;;;;;;;287.00;135.80;;;;;;;-2.94;81.20;100016.15;130031;1277;115208;-67
2023/01/20 05:51:10;;;;;;;277.30;132.40;;;;;;;-2.87;80.99;100011.45;129896;1259;114870;-69
2023/01/20 05:54:12;;;;;;;293.60;137.30;;;;;;;-2.82;81.07;100018.61;129857;1277;114798;-69
2023/01/20 05:57:17;;;;;;;318.80;143.00;;;;;;;-2.79;80.71;100021.92;129777;1254;114725;-70
2023/01/20 06:00:20;;;;;;;295.90;135.10;;;;;;;-2.78;80.56;100025.25;129984;1277;128906;-70
2023/01/20 06:03:23;;;;;;;295.80;136.60;;;;;;;-2.77;80.83;100022.64;129892;1259;114738;-70
2023/01/20 06:06:26;;;;;;;299.90;140.40;;;;;;;-2.76;80.61;100018.45;129981;1259;114830;-67
2023/01/20 06:09:29;;;;;;;314.40;141.50;;;;;;;-2.75;80.61;100016.17;130120;1258;114715;-70
2023/01/20 06:12:31;;;;;;;315.30;145.50;;;;;;;-2.76;80.64;100014.60;129869;1264;115303;-67
2023/01/20 06:15:34;;;;;;;313.50;148.60;;;;;;;-2.78;80.37;100017.04;130053;1253;115426;-68
2023/01/20 06:18:36;;;;;;;293.00;138.50;;;;;;;-2.82;80.20;100012.50;129808;1253;129562;-69
2023/01/20 06:21:39;;;;;;;288.20;138.40;;;;;;;-2.85;80.15;100011.97;129911;1259;115370;-68
2023/01/20 06:24:41;;;;;;;284.70;132.80;;;;;;;-2.88;80.41;100004.27;129608;1265;114878;-67
2023/01/20 06:27:43;;;;;;;286.40;131.70;;;;;;;-2.93;80.08;99995.01;129993;1258;114746;-69
2023/01/20 06:30:46;;;;;;;250.70;123.50;;;;;;;-2.99;80.08;99994.14;129607;1259;114920;-70
2023/01/20 06:33:48;;;;;;;272.90;131.20;;;;;;;-3.06;80.03;100000.77;129834;1270;114738;-62
2023/01/20 06:36:51;;;;;;;270.00;127.10;;;;;;;-3.13;79.85;100000.59;130013;1277;115163;-62
2023/01/20 06:39:53;;;;;;;256.90;125.60;;;;;;;-3.20;79.93;100000.40;129953;1258;114735;-64
2023/01/20 06:42:57;;;;;;;256.90;119.30;;;;;;;-3.26;79.81;100002.31;129982;1257;115024;-68
2023/01/20 06:46:04;;;;;;;250.00;119.90;;;;;;;-3.32;79.99;100012.08;129619;1259;115338;-62
2023/01/20 06:49:06;;;;;;;246.50;120.00;;;;;;;-3.40;79.96;100015.20;129946;1259;114675;-64
2023/01/20 06:52:09;;;;;;;232.70;112.20;;;;;;;-3.46;80.01;100020.59;130028;1259;115302;-66
2023/01/20 06:55:11;;;;;;;233.60;116.10;;;;;;;-3.51;79.73;100024.42;129975;1277;114687;-64
2023/01/20 06:58:13;;;;;;;249.60;118.40;;;;;;;-3.57;79.65;100030.33;130027;1269;114805;-66
2023/01/20 07:01:24;;;;;;;254.80;124.20;;;;;;;-3.63;79.58;100038.86;129879;1253;114872;-61
2023/01/20 07:04:27;;;;;;;261.80;124.10;;;;;;;-3.68;79.75;100035.71;129721;1263;114875;-62
2023/01/20 07:07:29;;;;;;;262.40;123.70;;;;;;;-3.71;79.92;100041.80;129985;1259;114710;-61
2023/01/20 07:10:32;;;;;;;264.10;123.80;;;;;;;-3.73;79.96;100054.36;129935;1259;114706;-66
2023/01/20 07:13:34;;;;;;;262.50;124.60;;;;;;;-3.75;80.00;100057.66;130003;1259;114782;-61
2023/01/20 07:16:37;;;;;;;268.30;126.00;;;;;;;-3.78;79.90;100063.58;129675;1254;128038;-61
2023/01/20 07:19:39;;;;;;;267.60;123.90;;;;;;;-3.78;79.95;100068.81;129912;1259;115383;-63
2023/01/20 07:22:44;;;;;;;253.00;128.10;;;;;;;-3.77;79.75;100076.48;130010;1259;114970;-66
2023/01/20 07:25:46;;;;;;;283.00;130.50;;;;;;;-3.77;80.07;100077.02;130158;1259;114775;-63
2023/01/20 07:28:49;;;;;;;268.30;130.40;;;;;;;-3.77;80.15;100087.48;130025;1259;114786;-60
2023/01/20 07:31:51;;;;;;;280.50;133.80;;;;;;;-3.75;80.16;100097.62;130016;1258;114853;-67
2023/01/20 07:34:53;;;;;;;283.70;131.40;;;;;;;-3.73;79.82;100102.52;129650;1277;128664;-64
2023/01/20 07:37:58;;;;;;;287.80;134.70;;;;;;;-3.70;80.28;100101.31;130032;1253;114821;-66
2023/01/20 07:41:03;;;;;;;269.90;130.00;;;;;;;-3.65;80.07;100102.04;129780;1259;248673;-70
2023/01/20 07:44:05;;;;;;;281.30;132.30;;;;;;;-3.58;80.62;100114.29;130448;1260;114728;-63
2023/01/20 07:47:07;;;;;;;264.50;129.20;;;;;;;-3.51;80.32;100126.20;129994;1264;114754;-65
2023/01/20 07:50:10;;;;;;;255.20;125.80;;;;;;;-3.42;80.62;100139.50;130247;1256;114726;-64
2023/01/20 07:53:12;;;;;;;262.30;124.40;;;;;;;-3.32;80.90;100146.53;130050;1278;129649;-67
2023/01/20 07:56:20;;;;;;;236.80;115.70;;;;;;;-3.20;81.24;100150.95;130248;1278;114795;-67
2023/01/20 07:59:22;;;;;;;227.70;111.30;;;;;;;-3.04;81.24;100149.61;129992;1262;114728;-68
2023/01/20 08:02:24;;;;;;;227.80;109.40;;;;;;;-2.86;81.54;100144.60;130072;1259;114727;-63
2023/01/20 08:05:26;;;;;;;240.70;115.50;;;;;;;-2.66;81.75;100136.09;130032;1278;114788;-64
2023/01/20 08:08:31;;;;;;;231.10;112.60;;;;;;;-2.45;82.10;100134.70;130147;1259;114770;-67
2023/01/20 08:11:33;;;;;;;241.60;112.90;;;;;;;-2.25;82.05;100132.63;129992;1257;127552;-65
2023/01/20 08:14:35;;;;;;;225.90;115.60;;;;;;;-2.07;81.53;100130.34;129830;1269;114695;-67
2023/01/20 08:17:38;;;;;;;235.30;116.50;;;;;;;-1.91;82.03;100132.25;130386;1259;115301;-69
2023/01/20 08:20:40;;;;;;;232.10;115.40;;;;;;;-1.76;81.59;100137.48;129974;1259;114690;-66
2023/01/20 08:23:42;;;;;;;223.20;113.70;;;;;;;-1.61;81.63;100150.05;130322;1278;114872;-64
2023/01/20 08:26:44;;;;;;;219.80;109.30;;;;;;;-1.47;81.56;100160.70;130165;1278;114779;-63
2023/01/20 08:29:47;;;;;;;213.60;109.60;;;;;;;-1.33;81.27;100165.75;129683;1262;114789;-63
2023/01/20 08:32:49;;;;;;;236.70;117.00;;;;;;;-1.19;81.28;100169.02;130130;1268;128834;-64
2023/01/20 08:35:52;;;;;;;227.80;120.00;;;;;;;-1.07;81.64;100175.64;130175;1259;115205;-62
2023/01/20 08:38:55;;;;;;;235.00;121.10;;;;;;;-0.98;81.24;100181.03;129971;1259;115173;-62
2023/01/20 08:41:58;;;;;;;232.80;121.20;;;;;;;-0.89;81.25;100181.00;129987;1263;114971;-62
2023/01/20 08:45:00;;;;;;;235.40;121.30;;;;;;;-0.80;81.52;100191.65;130247;1260;115240;-62
2023/01/20 08:48:02;;;;;;;229.40;112.90;;;;;;;-0.69;81.04;100190.73;130283;1254;115946;-65
2023/01/20 08:51:12;;;;;;;220.40;114.00;;;;;;;-0.60;80.93;100188.22;130260;1259;114782;-62
2023/01/20 08:54:15;;;;;;;226.70;111.40;;;;;;;-0.52;80.84;100183.44;130315;1258;128679;-66
2023/01/20 08:57:17;;;;;;;205.60;107.60;;;;;;;-0.45;80.71;100188.48;130286;1277;114645;-64
2023/01/20 09:00:19;;;;;;;202.80;107.10;;;;;;;-0.37;80.87;100193.34;130358;1259;114846;-63
2023/01/20 09:03:22;;;;;;;192.50;102.10;;;;;;;-0.31;80.84;100185.94;130272;1254;115259;-63
2023/01/20 09:06:26;;;;;;;189.00;97.50;;;;;;;-0.25;80.80;100190.64;130277;1254;114779;-62
2023/01/20 09:09:28;;;;;;;173.90;93.00;;;;;;;-0.20;80.54;100193.05;130215;1260;114785;-67
2023/01/20 09:12:30;;;;;;;153.00;84.60;;;;;;;-0.15;80.47;100199.17;130195;1267;114703;-62
2023/01/20 09:15:32;;;;;;;152.90;77.60;;;;;;;-0.10;80.24;100198.08;130005;1260;114773;-62
2023/01/20 09:18:34;;;;;;;153.30;75.10;;;;;;;-0.06;80.04;100202.27;129771;1263;115243;-63
2023/01/20 09:21:37;;;;;;;139.20;73.00;;;;;;;-0.03;80.06;100207.67;130204;1258;114702;-63
2023/01/20 09:24:39;;;;;;;141.60;74.20;;;;;;;0.02;80.17;100213.27;130188;1270;114792;-62
2023/01/20 09:27:41;;;;;;;160.00;82.40;;;;;;;0.08;80.15;100217.42;130479;1253;115185;-62
2023/01/20 09:30:44;;;;;;;157.80;81.90;;;;;;;0.18;80.06;100214.19;129952;1259;114791;-62
2023/01/20 09:33:46;;;;;;;157.10;81.10;;;;;;;0.29;80.24;100213.39;130241;1259;114668;-63
2023/01/20 09:36:55;;;;;;;173.20;84.60;;;;;;;0.39;80.31;100211.70;130268;1259;114716;-63
2023/01/20 09:44:02;;;;;;;155.00;81.70;;;;;;;0.61;80.27;100210.44;129768;1261;114839;-62
2023/01/20 09:47:24;;;;;;;149.80;80.10;;;;;;;0.74;79.67;100209.60;129464;1267;115171;-61
2023/01/20 09:54:12;;;;;;;146.80;77.50;;;;;;;1.00;79.73;100197.53;128850;1280;128632;-62
2023/01/20 09:57:16;;;;;;;142.60;73.20;;;;;;;1.06;79.19;100195.88;129065;1270;115190;-63
2023/01/20 10:00:21;;;;;;;169.20;83.60;;;;;;;1.11;79.03;100200.75;129093;1268;114904;-63
2023/01/20 10:03:36;;;;;;;180.30;89.80;;;;;;;1.16;78.84;100199.45;129092;1268;115412;-61
2023/01/20 10:06:48;;;;;;;241.10;117.80;;;;;;;1.22;78.96;100200.44;129098;1268;114894;-62
2023/01/20 10:10:11;;;;;;;262.70;128.60;;;;;;;1.21;78.71;100194.81;129017;1286;127725;-63
2023/01/20 10:13:22;;;;;;;280.00;133.40;;;;;;;1.18;78.35;100188.34;129061;1270;115421;-62
2023/01/20 10:16:36;;;;;;;263.50;126.90;;;;;;;1.20;78.70;100185.50;129113;1265;115008;-62
2023/01/20 10:19:55;;;;;;;225.80;111.40;;;;;;;1.24;78.81;100181.60;129806;1256;114859;-62
2023/01/20 10:23:07;;;;;;;195.70;105.00;;;;;;;1.26;78.40;100171.34;129731;1271;114625;-62
2023/01/20 10:26:21;;;;;;;176.90;93.50;;;;;;;1.30;78.38;100166.20;129727;1260;129054;-62
2023/01/20 10:29:35;;;;;;;126.70;68.60;;;;;;;1.36;78.05;100169.10;129493;1260;116469;-61
2023/01/20 10:32:42;;;;;;;128.50;65.80;;;;;;;1.41;78.00;100171.84;129623;1262;115144;-63
2023/01/20 10:35:46;;;;;;;124.60;65.60;;;;;;;1.48;77.71;100169.99;130077;1266;114762;-62
2023/01/20 10:39:02;;;;;;;141.20;78.00;;;;;;;1.54;77.71;100177.66;130018;1259;115193;-63
2023/01/20 10:42:07;;;;;;;;;;;;;;;1.59;77.57;100181.98;130147;1273;127873;-62
2023/01/20 10:45:37;;;;;;;163.60;88.10;;;;;;;1.62;77.61;100181.94;129528;1265;114919;-62
2023/01/20 10:49:06;;;;;;;164.00;86.00;;;;;;;1.69;77.83;100188.00;130128;1259;114694;-62
2023/01/20 10:52:18;;;;;;;165.50;85.80;;;;;;;1.76;77.97;100195.46;129723;1262;114722;-63
2023/01/20 10:55:27;;;;;;;147.00;83.40;;;;;;;1.81;77.98;100201.55;129546;1263;114869;-63
2023/01/20 10:58:32;;;;;;;146.10;76.50;;;;;;;1.88;77.83;100204.27;129826;1278;128556;-62
2023/01/20 11:01:34;;;;;;;129.50;68.00;;;;;;;1.94;77.41;100197.48;129741;1265;114754;-64
2023/01/20 11:04:37;;;;;;;138.70;73.10;;;;;;;2.01;77.57;100196.48;129927;1260;114746;-62
2023/01/20 11:07:40;;;;;;;137.30;72.70;;;;;;;2.09;77.55;100201.48;129703;1262;114996;-63
2023/01/20 11:10:42;;;;;;;137.60;73.70;;;;;;;2.20;77.55;100204.83;130024;1262;114746;-65
2023/01/20 11:13:45;;;;;;;140.20;77.10;;;;;;;2.29;77.28;100207.48;130034;1260;114752;-63
2023/01/20 11:16:50;;;;;;;158.20;85.70;;;;;;;2.38;77.10;100215.07;129718;1268;128872;-67
2023/01/20 11:19:55;;;;;;;158.00;81.70;;;;;;;2.43;76.58;100213.94;130099;1269;115285;-66
2023/01/20 11:22:57;;;;;;;127.60;68.20;;;;;;;2.52;77.08;100212.20;130026;1259;115404;-64
2023/01/20 11:26:10;;;;;;;106.90;56.30;;;;;;;2.63;76.81;100214.30;129924;1261;114809;-66
2023/01/20 11:29:12;;;;;;;112.80;60.60;;;;;;;2.73;76.36;100215.88;130129;1259;114706;-66
2023/01/20 11:32:24;;;;;;;98.00;54.90;;;;;;;2.79;76.01;100219.45;130092;1259;114712;-68
2023/01/20 11:35:26;;;;;;;95.90;52.40;;;;;;;2.88;76.08;100223.86;130099;1259;115260;-67
2023/01/20 11:38:31;;;;;;;92.00;51.60;;;;;;;2.97;76.04;100220.02;129743;1259;115076;-66
2023/01/20 11:41:33;;;;;;;;;;;;;;;3.04;75.85;100222.33;129944;1257;114885;-62
2023/01/20 11:44:44;;;;;;;96.20;48.90;;;;;;;3.11;75.85;100223.60;129864;1278;115174;-67
2023/01/20 11:47:58;;;;;;;88.90;50.10;;;;;;;3.19;75.83;100224.50;129539;1275;128099;-67
2023/01/20 11:51:01;;;;;;;103.60;53.10;;;;;;;3.26;75.60;100221.89;130051;1277;114933;-67
2023/01/20 11:54:10;;;;;;;131.70;69.70;;;;;;;3.34;75.51;100223.66;130348;1259;114744;-67
2023/01/20 11:57:15;;;;;;;149.60;81.00;;;;;;;3.41;75.56;100228.11;130073;1275;114712;-66
2023/01/20 12:00:17;;;;;;;154.00;82.70;;;;;;;3.44;75.58;100231.05;129888;1270;114743;-67
2023/01/20 12:03:43;;;;;;;144.80;76.80;;;;;;;3.51;75.75;100231.44;130336;1277;115157;-67
2023/01/20 12:06:50;;;;;;;137.30;74.90;;;;;;;3.57;75.46;100237.30;129943;1260;114737;-67
2023/01/20 12:09:57;;;;;;;131.30;67.60;;;;;;;3.65;75.32;100231.65;129974;1263;114833;-66
2023/01/20 12:13:18;;;;;;;134.80;67.10;;;;;;;3.69;75.14;100235.27;130078;1260;114802;-66
2023/01/20 12:16:23;;;;;;;123.60;66.40;;;;;;;3.74;74.99;100238.70;130222;1254;114743;-67
2023/01/20 12:19:54;;;;;;;119.60;60.70;;;;;;;3.77;74.73;100243.77;129697;1277;127822;-67
2023/01/20 12:23:00;;;;;;;152.00;79.00;;;;;;;3.76;74.36;100242.88;130008;1277;115259;-67
2023/01/20 12:26:04;;;;;;;126.50;65.80;;;;;;;3.77;74.38;100240.05;130199;1267;114805;-68
2023/01/20 12:29:19;;;;;;;107.60;56.50;;;;;;;3.76;74.17;100243.95;130252;1260;114766;-67
2023/01/20 12:32:21;;;;;;;66.20;37.00;;;;;;;3.75;73.82;100244.31;130236;1267;114810;-67
2023/01/20 12:35:28;;;;;;;61.00;34.90;;;;;;;3.72;73.53;100244.58;129970;1270;115310;-67
2023/01/20 12:38:40;;;;;;;64.60;37.70;;;;;;;3.70;73.56;100240.92;130267;1260;115221;-62
2023/01/20 12:41:48;;;;;;;66.20;40.50;;;;;;;3.68;73.46;100240.07;129853;1262;114885;-62
2023/01/20 12:45:17;;;;;;;71.20;41.20;;;;;;;3.66;73.26;100233.94;129906;1260;115132;-62
2023/01/20 12:48:29;;;;;;;91.20;49.90;;;;;;;3.61;73.20;100237.91;129872;1260;114899;-62
2023/01/20 12:51:55;;;;;;;107.20;56.80;;;;;;;3.58;73.11;100249.27;129862;1264;127591;-62
2023/01/20 12:55:03;;;;;;;95.40;49.20;;;;;;;3.59;73.06;100246.27;129567;1260;116350;-63
2023/01/20 12:58:41;;;;;;;75.60;41.10;;;;;;;3.59;73.06;100244.34;129843;1260;115046;-62
2023/01/20 13:02:11;;;;;;;81.40;41.60;;;;;;;3.57;72.97;100244.00;129991;1264;114904;-62
2023/01/20 13:05:40;;;;;;;80.90;43.80;;;;;;;3.55;72.59;100241.94;129835;1258;115461;-62
2023/01/20 13:08:52;;;;;;;72.80;40.90;;;;;;;3.53;72.51;100238.46;129606;1260;127974;-61
2023/01/20 13:12:00;;;;;;;76.90;41.40;;;;;;;3.49;72.44;100242.05;129641;1278;115364;-61
2023/01/20 13:15:39;;;;;;;68.60;38.60;;;;;;;3.46;72.31;100249.18;129667;1263;114933;-61
2023/01/20 13:19:11;;;;;;;75.80;38.80;;;;;;;3.43;72.18;100251.02;129547;1278;114985;-61
2023/01/20 13:22:21;;;;;;;84.50;43.30;;;;;;;3.40;72.27;100255.84;129782;1277;114770;-62
2023/01/20 13:25:23;;;;;;;76.20;39.60;;;;;;;3.38;72.16;100254.84;129931;1268;129191;-61
2023/01/20 13:28:28;;;;;;;78.40;44.80;;;;;;;3.35;72.18;100261.95;130015;1257;114777;-62
2023/01/20 13:31:36;;;;;;;80.50;44.90;;;;;;;3.33;72.12;100267.45;129720;1254;114764;-61
2023/01/20 13:34:39;;;;;;;76.90;44.30;;;;;;;3.29;71.95;100268.44;129959;1277;114653;-61
2023/01/20 13:37:48;;;;;;;92.00;46.30;;;;;;;3.24;72.11;100270.82;129902;1270;114850;-61
2023/01/20 13:40:53;;;;;;;94.20;53.10;;;;;;;3.20;72.21;100271.98;129680;1271;127016;-60
2023/01/20 13:43:56;;;;;;;90.40;51.10;;;;;;;3.16;72.12;100274.33;129715;1270;115472;-64
2023/01/20 13:46:58;;;;;;;88.70;50.80;;;;;;;3.14;72.15;100279.85;130044;1257;114673;-65
2023/01/20 13:50:20;;;;;;;67.80;38.50;;;;;;;3.08;71.93;100281.19;129911;1254;115166;-60
2023/01/20 13:53:26;;;;;;;56.80;34.20;;;;;;;2.97;71.94;100283.15;131683;1249;114683;-66